createdAt,value
2023-04-07T00:01:46.405Z,16.77
2023-04-07T00:04:13.823Z,22.73
2023-04-07T00:06:43.644Z,16.93
2023-04-07T00:09:11.408Z,17.83
2023-04-07T00:11:38.445Z,16.17
2023-04-07T00:14:05.809Z,15.77
2023-04-07T00:16:32.906Z,17.93
2023-04-07T00:19:04.481Z,19.53
2023-04-07T00:21:33.631Z,14.70
2023-04-07T00:24:05.998Z,19.90
2023-04-07T00:26:35.571Z,13.60
2023-04-07T00:29:02.596Z,26.23
2023-04-07T00:31:32.610Z,13.50
2023-04-07T00:33:59.745Z,14.20
2023-04-07T00:36:27.092Z,14.30
2023-04-07T00:38:59.364Z,16.47
2023-04-07T00:41:26.295Z,18.53
2023-04-07T00:43:55.830Z,17.53
2023-04-07T00:46:26.467Z,16.30
2023-04-07T00:48:53.808Z,13.60
2023-04-07T00:51:22.694Z,15.80
2023-04-07T00:53:50.538Z,15.47
2023-04-07T00:56:17.546Z,15.03
2023-04-07T00:58:44.390Z,18.10
2023-04-07T01:01:27.763Z,15.77
2023-04-07T01:04:34.657Z,16.30
2023-04-07T01:07:12.024Z,18.00
2023-04-07T01:09:51.657Z,12.00
2023-04-07T01:12:39.358Z,16.30
2023-04-07T01:15:14.404Z,11.53
2023-04-07T01:17:46.918Z,14.60
2023-04-07T01:20:20.798Z,14.77
2023-04-07T01:22:54.572Z,11.30
2023-04-07T01:25:34.379Z,12.07
2023-04-07T01:28:14.684Z,24.20
2023-04-07T01:30:43.565Z,15.83
2023-04-07T01:33:12.240Z,15.80
2023-04-07T01:35:42.979Z,16.10
2023-04-07T01:38:10.963Z,14.63
2023-04-07T01:40:41.520Z,13.33
2023-04-07T01:43:09.251Z,12.30
2023-04-07T01:45:37.295Z,10.83
2023-04-07T01:48:07.630Z,11.53
2023-04-07T01:50:37.351Z,14.60
2023-04-07T01:53:05.165Z,10.50
2023-04-07T01:55:34.991Z,12.00
2023-04-07T01:58:10.676Z,14.17
2023-04-07T02:00:38.009Z,14.73
2023-04-07T02:03:21.242Z,9.50
2023-04-07T02:05:55.274Z,11.27
2023-04-07T02:08:27.759Z,9.93
2023-04-07T02:10:57.047Z,9.67
2023-04-07T02:13:30.174Z,10.83
2023-04-07T02:15:58.380Z,10.23
2023-04-07T02:18:28.030Z,10.17
2023-04-07T02:20:58.865Z,11.80
2023-04-07T02:23:26.152Z,10.90
2023-04-07T02:25:58.190Z,11.63
2023-04-07T02:28:27.932Z,9.97
2023-04-07T02:30:58.317Z,16.67
2023-04-07T02:33:25.638Z,10.13
2023-04-07T02:35:52.837Z,11.30
2023-04-07T02:38:22.009Z,9.83
2023-04-07T02:40:49.399Z,10.40
2023-04-07T02:43:17.665Z,10.30
2023-04-07T02:45:44.686Z,10.20
2023-04-07T02:48:13.877Z,11.20
2023-04-07T02:50:42.009Z,20.57
2023-04-07T02:53:10.370Z,9.60
2023-04-07T02:55:37.593Z,11.10
2023-04-07T02:58:07.259Z,8.80
2023-04-07T03:00:35.044Z,11.77
2023-04-07T03:03:05.861Z,13.00
2023-04-07T03:05:35.408Z,11.00
2023-04-07T03:08:02.564Z,12.30
2023-04-07T03:10:39.847Z,9.97
2023-04-07T03:13:08.557Z,9.67
2023-04-07T03:15:35.884Z,8.87
2023-04-07T03:18:03.143Z,9.80
2023-04-07T03:20:32.894Z,10.00
2023-04-07T03:23:00.534Z,9.37
2023-04-07T03:25:27.811Z,8.30
2023-04-07T03:27:57.183Z,11.13
2023-04-07T03:30:27.501Z,11.40
2023-04-07T03:32:56.995Z,10.07
2023-04-07T03:35:24.065Z,9.47
2023-04-07T03:37:53.164Z,7.50
2023-04-07T03:40:23.132Z,9.57
2023-04-07T03:42:52.741Z,7.97
2023-04-07T03:45:20.069Z,11.63
2023-04-07T03:47:47.563Z,8.57
2023-04-07T03:50:17.021Z,8.60
2023-04-07T03:52:44.471Z,9.37
2023-04-07T03:55:13.918Z,11.03
2023-04-07T03:57:40.955Z,8.07
2023-04-07T04:00:09.294Z,8.87
2023-04-07T04:02:39.088Z,8.70
2023-04-07T04:05:09.627Z,9.20
2023-04-07T04:07:36.879Z,8.83
2023-04-07T04:10:07.297Z,21.43
2023-04-07T04:12:37.045Z,8.57
2023-04-07T04:15:04.906Z,9.63
2023-04-07T04:17:34.804Z,8.80
2023-04-07T04:20:05.117Z,8.87
2023-04-07T04:22:32.274Z,10.43
2023-04-07T04:25:02.675Z,8.97
2023-04-07T04:27:31.995Z,19.33
2023-04-07T04:29:59.462Z,15.00
2023-04-07T04:32:31.198Z,9.33
2023-04-07T04:35:00.616Z,14.80
2023-04-07T04:37:30.043Z,10.03
2023-04-07T04:40:02.101Z,13.50
2023-04-07T04:42:33.855Z,14.83
2023-04-07T04:45:01.325Z,7.47
2023-04-07T04:47:28.360Z,15.53
2023-04-07T04:49:55.575Z,8.67
2023-04-07T04:52:22.636Z,7.73
2023-04-07T04:54:49.652Z,14.33
2023-04-07T04:57:17.003Z,8.93
2023-04-07T04:59:47.001Z,10.23
2023-04-07T05:02:14.028Z,8.53
2023-04-07T05:04:41.633Z,15.73
2023-04-07T05:07:08.644Z,9.83
2023-04-07T05:09:35.918Z,7.53
2023-04-07T05:12:03.058Z,8.30
2023-04-07T05:14:30.179Z,7.50
2023-04-07T05:17:00.999Z,9.13
2023-04-07T05:19:29.788Z,8.07
2023-04-07T05:21:56.724Z,8.17
2023-04-07T05:24:26.215Z,11.80
2023-04-07T05:26:57.173Z,7.80
2023-04-07T05:29:24.309Z,9.40
2023-04-07T05:31:55.967Z,8.03
2023-04-07T05:34:23.094Z,7.83
2023-04-07T05:36:50.121Z,6.70
2023-04-07T05:39:17.226Z,8.67
2023-04-07T05:41:44.183Z,8.43
2023-04-07T05:44:11.144Z,7.00
2023-04-07T05:46:40.384Z,7.50
2023-04-07T05:51:45.847Z,11.30
2023-04-07T05:54:13.726Z,7.10
2023-04-07T05:56:43.272Z,9.77
2023-04-07T05:59:17.214Z,19.40
2023-04-07T06:01:44.430Z,11.03
2023-04-07T06:04:14.198Z,9.47
2023-04-07T06:06:41.292Z,7.63
2023-04-07T06:09:08.487Z,9.80
2023-04-07T06:11:37.676Z,7.70
2023-04-07T06:14:04.618Z,18.50
2023-04-07T06:16:34.475Z,8.60
2023-04-07T06:19:01.862Z,8.23
2023-04-07T06:21:31.588Z,8.47
2023-04-07T06:24:02.217Z,8.13
2023-04-07T06:26:34.483Z,9.60
2023-04-07T06:29:01.632Z,11.33
2023-04-07T06:31:33.368Z,10.13
2023-04-07T06:34:02.577Z,11.20
2023-04-07T06:36:33.122Z,8.43
2023-04-07T06:39:05.310Z,8.60
2023-04-07T06:41:34.584Z,10.03
2023-04-07T06:44:04.701Z,8.43
2023-04-07T06:46:32.065Z,8.50
2023-04-07T06:49:01.712Z,11.93
2023-04-07T06:51:28.719Z,9.60
2023-04-07T06:53:56.123Z,19.17
2023-04-07T06:56:24.800Z,8.87
2023-04-07T06:58:51.753Z,9.37
2023-04-07T07:01:23.312Z,11.00
2023-04-07T07:03:50.713Z,8.63
2023-04-07T07:06:17.991Z,7.23
2023-04-07T07:08:47.512Z,9.83
2023-04-07T07:11:16.862Z,15.37
2023-04-07T07:13:45.178Z,8.17
2023-04-07T07:16:17.749Z,12.50
2023-04-07T07:18:47.020Z,11.53
2023-04-07T07:21:17.839Z,8.03
2023-04-07T07:23:47.471Z,7.43
2023-04-07T07:26:14.694Z,8.40
2023-04-07T07:28:41.649Z,8.07
2023-04-07T07:31:13.187Z,11.37
2023-04-07T07:33:41.710Z,8.17
2023-04-07T07:36:09.320Z,8.60
2023-04-07T07:38:37.741Z,7.40
2023-04-07T07:41:06.773Z,7.03
2023-04-07T07:43:37.156Z,9.87
2023-04-07T07:46:06.824Z,9.13
2023-04-07T07:48:33.912Z,9.20
2023-04-07T07:51:01.003Z,11.57
2023-04-07T07:53:30.701Z,9.13
2023-04-07T07:55:58.129Z,8.47
2023-04-07T07:58:25.527Z,8.60
2023-04-07T08:00:52.548Z,8.73
2023-04-07T08:03:24.708Z,9.23
2023-04-07T08:05:51.844Z,11.93
2023-04-07T08:08:18.893Z,8.80
2023-04-07T08:10:48.984Z,11.60
2023-04-07T08:13:16.255Z,8.73
2023-04-07T08:15:43.402Z,8.33
2023-04-07T08:18:12.715Z,9.27
2023-04-07T08:20:42.566Z,10.43
2023-04-07T08:23:12.237Z,8.23
2023-04-07T08:25:42.323Z,9.90
2023-04-07T08:28:09.283Z,8.40
2023-04-07T08:30:36.530Z,14.53
2023-04-07T08:33:06.271Z,9.67
2023-04-07T08:35:33.558Z,9.80
2023-04-07T08:38:03.565Z,8.37
2023-04-07T08:40:32.893Z,10.67
2023-04-07T08:43:01.515Z,8.90
2023-04-07T08:45:31.945Z,6.83
2023-04-07T08:48:07.950Z,7.53
2023-04-07T08:50:35.426Z,11.40
2023-04-07T08:53:12.022Z,11.47
2023-04-07T08:55:39.095Z,6.97
2023-04-07T08:58:06.249Z,7.20
2023-04-07T09:00:37.782Z,8.10
2023-04-07T09:03:05.233Z,8.30
2023-04-07T09:05:34.901Z,7.57
2023-04-07T09:08:06.737Z,8.27
2023-04-07T09:10:36.246Z,9.77
2023-04-07T09:13:03.344Z,7.70
2023-04-07T09:15:41.521Z,9.73
2023-04-07T09:18:10.968Z,10.33
2023-04-07T09:21:01.308Z,8.20
2023-04-07T09:23:30.598Z,7.67
2023-04-07T09:26:01.523Z,8.80
2023-04-07T09:28:49.066Z,9.63
2023-04-07T09:31:21.316Z,8.03
2023-04-07T09:33:51.835Z,8.20
2023-04-07T09:36:21.151Z,10.10
2023-04-07T09:38:48.152Z,12.33
2023-04-07T09:41:19.181Z,17.23
2023-04-07T09:43:47.640Z,7.60
2023-04-07T09:46:19.192Z,9.20
2023-04-07T09:48:48.607Z,14.80
2023-04-07T09:51:21.336Z,9.37
2023-04-07T09:53:56.559Z,20.73
2023-04-07T09:56:24.013Z,8.53
2023-04-07T09:58:52.106Z,10.30
2023-04-07T10:01:22.009Z,7.00
2023-04-07T10:03:50.933Z,7.37
2023-04-07T10:06:20.673Z,12.87
2023-04-07T10:08:50.026Z,7.60
2023-04-07T10:11:18.672Z,7.60
2023-04-07T10:13:46.206Z,8.07
2023-04-07T10:16:13.615Z,7.50
2023-04-07T10:18:46.599Z,10.30
2023-04-07T10:21:16.463Z,6.73
2023-04-07T10:24:24.482Z,10.87
2023-04-07T10:26:56.990Z,9.40
2023-04-07T10:29:32.134Z,8.90
2023-04-07T10:32:01.758Z,7.37
2023-04-07T10:34:50.496Z,8.30
2023-04-07T10:37:21.253Z,12.20
2023-04-07T10:40:21.579Z,7.83
2023-04-07T10:42:51.952Z,7.57
2023-04-07T10:45:54.292Z,8.00
2023-04-07T10:48:28.448Z,7.83
2023-04-07T10:51:12.550Z,8.33
2023-04-07T10:54:17.966Z,16.87
2023-04-07T10:57:03.255Z,7.00
2023-04-07T10:59:31.236Z,9.37
2023-04-07T11:02:16.586Z,7.83
2023-04-07T11:04:46.103Z,7.07
2023-04-07T11:07:15.803Z,7.50
2023-04-07T11:09:42.909Z,7.83
2023-04-07T11:12:22.721Z,7.23
2023-04-07T11:14:52.250Z,6.57
2023-04-07T11:17:21.697Z,7.00
2023-04-07T11:19:54.629Z,6.53
2023-04-07T11:22:29.971Z,9.87
2023-04-07T11:24:57.713Z,6.60
2023-04-07T11:27:24.723Z,7.10
2023-04-07T11:29:54.315Z,18.07
2023-04-07T11:32:26.166Z,6.90
2023-04-07T11:34:56.030Z,7.73
2023-04-07T11:37:31.380Z,8.90
2023-04-07T11:40:01.723Z,6.87
2023-04-07T11:42:37.405Z,7.17
2023-04-07T11:45:08.355Z,6.77
2023-04-07T11:47:38.650Z,9.00
2023-04-07T11:50:08.974Z,5.90
2023-04-07T11:52:44.880Z,7.23
2023-04-07T11:55:24.538Z,7.13
2023-04-07T11:57:52.470Z,9.77
2023-04-07T12:00:22.356Z,5.70
2023-04-07T12:02:49.725Z,18.53
2023-04-07T12:05:17.235Z,5.70
2023-04-07T12:07:54.618Z,5.80
2023-04-07T12:10:27.760Z,5.40
2023-04-07T12:12:55.238Z,6.27
2023-04-07T12:15:25.027Z,8.53
2023-04-07T12:17:52.040Z,6.13
2023-04-07T12:20:19.149Z,5.57
2023-04-07T12:22:46.354Z,5.13
2023-04-07T12:25:13.306Z,6.20
2023-04-07T12:27:43.906Z,10.73
2023-04-07T12:30:12.944Z,5.97
2023-04-07T12:32:42.782Z,5.77
2023-04-07T12:35:12.887Z,6.77
2023-04-07T12:37:40.003Z,5.90
2023-04-07T12:40:12.142Z,4.83
2023-04-07T12:42:41.744Z,5.90
2023-04-07T12:45:09.122Z,5.00
2023-04-07T12:47:38.307Z,5.60
2023-04-07T12:50:06.146Z,5.40
2023-04-07T12:52:33.383Z,5.20
2023-04-07T12:55:00.352Z,5.97
2023-04-07T12:57:27.660Z,5.43
2023-04-07T12:59:57.184Z,5.57
2023-04-07T13:02:26.837Z,5.50
2023-04-07T13:04:56.280Z,4.30
2023-04-07T13:07:23.552Z,6.90
2023-04-07T13:09:53.015Z,5.57
2023-04-07T13:12:24.928Z,5.03
2023-04-07T13:15:00.528Z,5.10
2023-04-07T13:17:29.063Z,5.27
2023-04-07T13:19:59.215Z,4.77
2023-04-07T13:22:26.282Z,5.40
2023-04-07T13:24:55.669Z,4.90
2023-04-07T13:27:25.018Z,5.53
2023-04-07T13:29:55.035Z,5.07
2023-04-07T13:32:22.080Z,6.00
2023-04-07T13:34:49.404Z,5.10
2023-04-07T13:37:19.607Z,4.63
2023-04-07T13:39:46.710Z,4.27
2023-04-07T13:42:17.500Z,3.83
2023-04-07T13:44:48.184Z,3.87
2023-04-07T13:47:19.451Z,3.43
2023-04-07T13:49:48.203Z,2.83
2023-04-07T13:52:19.855Z,2.87
2023-04-07T13:54:47.037Z,2.93
2023-04-07T13:57:20.545Z,2.17
2023-04-07T13:59:49.646Z,2.40
2023-04-07T14:02:17.300Z,2.43
2023-04-07T14:04:44.694Z,2.30
2023-04-07T14:07:14.258Z,3.23
2023-04-07T14:09:43.644Z,2.07
2023-04-07T14:12:10.737Z,2.73
2023-04-07T14:14:38.771Z,5.50
2023-04-07T14:17:08.253Z,3.37
2023-04-07T14:19:35.738Z,2.73
2023-04-07T14:22:08.182Z,2.80
2023-04-07T14:24:35.162Z,3.63
2023-04-07T14:27:04.013Z,4.97
2023-04-07T14:29:31.211Z,2.73
2023-04-07T14:32:00.807Z,4.00
2023-04-07T14:34:33.249Z,6.00
2023-04-07T14:37:03.510Z,3.80
2023-04-07T14:39:32.797Z,2.77
2023-04-07T14:42:02.206Z,2.93
2023-04-07T14:44:29.168Z,3.83
2023-04-07T14:46:56.297Z,2.73
2023-04-07T14:49:25.105Z,2.97
2023-04-07T14:51:55.199Z,8.60
2023-04-07T14:54:23.307Z,3.13
2023-04-07T14:56:50.639Z,3.13
2023-04-07T14:59:19.926Z,3.00
2023-04-07T15:01:47.040Z,3.10
2023-04-07T15:04:14.281Z,2.43
2023-04-07T15:06:47.302Z,3.40
2023-04-07T15:09:14.512Z,2.97
2023-04-07T15:11:46.566Z,2.90
2023-04-07T15:14:16.071Z,4.10
2023-04-07T15:16:50.283Z,3.93
2023-04-07T15:19:21.977Z,5.30
2023-04-07T15:21:53.578Z,3.60
2023-04-07T15:24:22.185Z,3.00
2023-04-07T15:26:52.646Z,3.57
2023-04-07T15:29:19.541Z,3.70
2023-04-07T15:31:48.996Z,4.63
2023-04-07T15:34:15.912Z,3.03
2023-04-07T15:36:42.850Z,3.13
2023-04-07T15:39:09.779Z,3.73
2023-04-07T15:41:38.362Z,3.47
2023-04-07T15:44:05.637Z,3.77
2023-04-07T15:46:32.763Z,3.70
2023-04-07T15:49:02.730Z,4.20
2023-04-07T15:51:34.866Z,3.50
2023-04-07T15:54:04.335Z,4.10
2023-04-07T15:56:31.299Z,3.90
2023-04-07T15:59:01.427Z,4.43
2023-04-07T16:01:28.932Z,4.60
2023-04-07T16:03:56.085Z,4.30
2023-04-07T16:06:27.947Z,4.10
2023-04-07T16:08:57.147Z,23.63
2023-04-07T16:11:24.125Z,6.90
2023-04-07T16:13:51.258Z,4.20
2023-04-07T16:16:21.496Z,4.27
2023-04-07T16:18:51.927Z,4.93
2023-04-07T16:21:18.914Z,5.20
2023-04-07T16:23:45.948Z,4.40
2023-04-07T16:26:13.154Z,4.13
2023-04-07T16:28:41.996Z,4.33
2023-04-07T16:31:09.015Z,4.63
2023-04-07T16:33:39.142Z,5.73
2023-04-07T16:36:11.582Z,4.70
2023-04-07T16:38:38.555Z,4.20
2023-04-07T16:41:08.259Z,5.30
2023-04-07T16:43:35.322Z,4.67
2023-04-07T16:46:08.032Z,5.37
2023-04-07T16:48:37.567Z,4.80
2023-04-07T16:51:04.876Z,4.63
2023-04-07T16:53:31.956Z,5.80
2023-04-07T16:55:58.993Z,6.23
2023-04-07T16:58:26.168Z,9.00
2023-04-07T17:00:55.500Z,4.90
2023-04-07T17:03:22.602Z,8.27
2023-04-07T17:05:54.243Z,4.90
2023-04-07T17:08:26.020Z,4.60
2023-04-07T17:10:53.001Z,4.53
2023-04-07T17:13:22.771Z,3.90
2023-04-07T17:15:54.806Z,4.90
2023-04-07T17:18:24.704Z,4.97
2023-04-07T17:20:52.039Z,6.00
2023-04-07T17:23:21.690Z,5.60
2023-04-07T17:25:51.816Z,5.40
2023-04-07T17:28:21.086Z,4.90
2023-04-07T17:30:50.704Z,8.00
2023-04-07T17:33:19.853Z,5.50
2023-04-07T17:35:49.671Z,5.10
2023-04-07T17:38:16.958Z,5.60
2023-04-07T17:40:46.248Z,6.33
2023-04-07T17:43:13.294Z,5.90
2023-04-07T17:45:40.566Z,6.77
2023-04-07T17:48:12.036Z,5.80
2023-04-07T17:50:39.329Z,6.77
2023-04-07T17:53:06.606Z,6.13
2023-04-07T17:55:36.533Z,5.97
2023-04-07T17:58:06.540Z,7.37
2023-04-07T18:00:35.936Z,5.87
2023-04-07T18:03:05.820Z,7.33
2023-04-07T18:05:35.695Z,6.13
2023-04-07T18:08:03.159Z,8.97
2023-04-07T18:10:30.320Z,7.00
2023-04-07T18:12:57.561Z,6.20
2023-04-07T18:15:24.629Z,7.50
2023-04-07T18:17:53.236Z,5.87
2023-04-07T18:20:20.608Z,6.83
2023-04-07T18:22:50.905Z,6.03
2023-04-07T18:25:18.181Z,5.73
2023-04-07T18:27:47.304Z,6.53
2023-04-07T18:30:16.730Z,6.50
2023-04-07T18:32:44.573Z,5.47
2023-04-07T18:35:11.893Z,6.47
2023-04-07T18:37:38.948Z,7.27
2023-04-07T18:40:12.497Z,6.60
2023-04-07T18:42:42.893Z,4.93
2023-04-07T18:45:10.474Z,5.30
2023-04-07T18:47:37.647Z,6.60
2023-04-07T18:50:05.706Z,6.10
2023-04-07T18:52:35.189Z,5.60
2023-04-07T18:55:02.921Z,5.47
2023-04-07T18:57:29.912Z,5.40
2023-04-07T18:59:56.890Z,7.20
2023-04-07T19:02:24.167Z,17.30
2023-04-07T19:04:51.460Z,7.47
2023-04-07T19:07:21.051Z,6.50
2023-04-07T19:09:51.390Z,6.10
2023-04-07T19:12:20.791Z,6.53
2023-04-07T19:14:48.032Z,6.33
2023-04-07T19:17:15.096Z,6.50
2023-04-07T19:19:42.184Z,7.03
2023-04-07T19:22:09.234Z,6.20
2023-04-07T19:24:41.661Z,7.77
2023-04-07T19:27:14.020Z,5.60
2023-04-07T19:29:43.542Z,6.43
2023-04-07T19:32:13.085Z,6.27
2023-04-07T19:34:44.731Z,7.10
2023-04-07T19:37:14.205Z,7.33
2023-04-07T19:39:46.920Z,6.27
2023-04-07T19:42:21.722Z,6.20
2023-04-07T19:44:48.730Z,6.23
2023-04-07T19:47:18.064Z,6.53
2023-04-07T19:49:46.163Z,6.70
2023-04-07T19:52:13.262Z,16.03
2023-04-07T19:54:40.415Z,8.90
2023-04-07T19:57:07.601Z,9.10
2023-04-07T19:59:37.739Z,11.17
2023-04-07T20:02:07.220Z,9.37
2023-04-07T20:04:34.663Z,9.60
2023-04-07T20:07:02.398Z,10.30
2023-04-07T20:09:29.496Z,9.43
2023-04-07T20:11:59.539Z,12.37
2023-04-07T20:14:26.543Z,9.07
2023-04-07T20:16:54.210Z,8.13
2023-04-07T20:19:21.374Z,9.33
2023-04-07T20:21:50.593Z,9.83
2023-04-07T20:24:19.732Z,9.97
2023-04-07T20:26:46.742Z,11.33
2023-04-07T20:29:13.708Z,9.67
2023-04-07T20:31:41.259Z,9.73
2023-04-07T20:34:08.278Z,11.70
2023-04-07T20:36:37.759Z,9.33
2023-04-07T20:39:06.928Z,12.50
2023-04-07T20:41:34.034Z,10.77
2023-04-07T20:44:05.572Z,12.67
2023-04-07T20:46:33.477Z,9.50
2023-04-07T20:49:00.903Z,9.20
2023-04-07T20:51:30.652Z,12.37
2023-04-07T20:53:57.747Z,10.80
2023-04-07T20:56:24.725Z,11.03
2023-04-07T20:58:51.923Z,9.07
2023-04-07T21:01:18.853Z,12.37
2023-04-07T21:03:48.203Z,10.60
2023-04-07T21:06:17.853Z,9.90
2023-04-07T21:08:47.830Z,9.53
2023-04-07T21:11:15.096Z,14.90
2023-04-07T21:13:44.300Z,13.23
2023-04-07T21:16:11.556Z,9.90
2023-04-07T21:18:43.262Z,11.60
2023-04-07T21:21:10.463Z,12.30
2023-04-07T21:23:37.415Z,11.77
2023-04-07T21:26:04.593Z,11.20
2023-04-07T21:28:31.546Z,13.10
2023-04-07T21:31:03.963Z,15.50
2023-04-07T21:33:33.358Z,16.43
2023-04-07T21:36:03.919Z,15.27
2023-04-07T21:38:31.552Z,15.13
2023-04-07T21:40:58.585Z,16.57
2023-04-07T21:43:28.678Z,15.97
2023-04-07T21:45:57.900Z,19.43
2023-04-07T21:48:24.938Z,16.47
2023-04-07T21:50:55.030Z,14.73
2023-04-07T21:53:24.687Z,16.00
2023-04-07T21:55:56.508Z,14.43
2023-04-07T21:58:26.477Z,12.77
2023-04-07T22:00:54.126Z,16.67
2023-04-07T22:03:21.988Z,12.13
2023-04-07T22:05:49.261Z,15.13
2023-04-07T22:08:16.723Z,15.70
2023-04-07T22:10:43.919Z,12.77
2023-04-07T22:13:11.096Z,17.07
2023-04-07T22:15:40.968Z,16.17
2023-04-07T22:18:08.961Z,18.97
2023-04-07T22:20:36.153Z,21.00
2023-04-07T22:23:03.108Z,25.40
2023-04-07T22:25:30.116Z,26.50
2023-04-07T22:27:57.283Z,20.17
2023-04-07T22:30:24.727Z,23.43
2023-04-07T22:32:54.884Z,20.60
2023-04-07T22:35:21.913Z,13.50
2023-04-07T22:37:51.169Z,14.53
2023-04-07T22:40:18.215Z,17.70
2023-04-07T22:42:45.265Z,15.73
2023-04-07T22:45:17.903Z,17.00
2023-04-07T22:47:47.382Z,16.90
2023-04-07T22:50:14.563Z,18.57
2023-04-07T22:52:41.679Z,22.10
2023-04-07T22:55:09.107Z,34.00
2023-04-07T22:57:38.650Z,22.50
2023-04-07T23:00:06.815Z,17.63
2023-04-07T23:02:33.817Z,21.57
2023-04-07T23:05:01.099Z,19.27
2023-04-07T23:07:28.141Z,16.07
2023-04-07T23:09:55.412Z,21.10
2023-04-07T23:12:24.871Z,18.33
2023-04-07T23:14:52.631Z,17.73
2023-04-07T23:17:19.806Z,19.10
2023-04-07T23:19:46.801Z,18.77
2023-04-07T23:22:13.776Z,24.23
2023-04-07T23:24:41.611Z,23.73
2023-04-07T23:27:08.577Z,22.30
2023-04-07T23:29:36.205Z,27.20
2023-04-07T23:32:03.172Z,22.07
2023-04-07T23:34:30.403Z,24.40
2023-04-07T23:36:59.540Z,22.33
2023-04-07T23:39:26.648Z,27.93
2023-04-07T23:41:53.755Z,18.77
2023-04-07T23:44:20.942Z,20.43
2023-04-07T23:46:48.323Z,25.73
2023-04-07T23:49:15.321Z,27.07
2023-04-07T23:51:46.874Z,22.07
2023-04-07T23:54:13.941Z,18.27
2023-04-07T23:56:41.506Z,22.33
2023-04-07T23:59:08.504Z,17.03
